sensor_id;sensor_type;location;lat;lon;timestamp;pressure;altitude;pressure_sealevel;temperature;humidity
42125;BME280;27787;44.594;11.046;2023-09-07T00:00:39;101460.13;;;21.69;66.05
42125;BME280;27787;44.594;11.046;2023-09-07T00:03:23;101465.69;;;21.63;65.72
42125;BME280;27787;44.594;11.046;2023-09-07T00:06:08;101466.78;;;21.56;66.13
42125;BME280;27787;44.594;11.046;2023-09-07T00:08:52;101460.88;;;21.41;67.62
42125;BME280;27787;44.594;11.046;2023-09-07T00:11:37;101464.59;;;21.37;67.69
42125;BME280;27787;44.594;11.046;2023-09-07T00:14:21;101463.69;;;21.37;67.30
42125;BME280;27787;44.594;11.046;2023-09-07T00:17:05;101460.97;;;21.38;67.32
42125;BME280;27787;44.594;11.046;2023-09-07T00:19:49;101457.44;;;21.36;67.68
42125;BME280;27787;44.594;11.046;2023-09-07T00:22:34;101455.66;;;21.37;68.17
42125;BME280;27787;44.594;11.046;2023-09-07T00:25:19;101453.91;;;21.34;68.11
42125;BME280;27787;44.594;11.046;2023-09-07T00:28:04;101457.69;;;21.27;68.36
42125;BME280;27787;44.594;11.046;2023-09-07T00:30:49;101463.81;;;21.32;68.78
42125;BME280;27787;44.594;11.046;2023-09-07T00:33:33;101460.03;;;21.39;67.76
42125;BME280;27787;44.594;11.046;2023-09-07T00:36:16;101455.50;;;21.41;67.58
42125;BME280;27787;44.594;11.046;2023-09-07T00:39:02;101461.84;;;21.39;68.06
42125;BME280;27787;44.594;11.046;2023-09-07T00:41:46;101460.09;;;21.38;68.63
42125;BME280;27787;44.594;11.046;2023-09-07T00:44:30;101468.25;;;21.33;68.97
42125;BME280;27787;44.594;11.046;2023-09-07T00:47:15;101468.47;;;21.24;69.65
42125;BME280;27787;44.594;11.046;2023-09-07T00:50:00;101473.31;;;21.08;70.29
42125;BME280;27787;44.594;11.046;2023-09-07T00:52:46;101479.44;;;20.78;71.47
42125;BME280;27787;44.594;11.046;2023-09-07T00:55:31;101485.44;;;20.50;72.54
42125;BME280;27787;44.594;11.046;2023-09-07T00:58:16;101483.06;;;20.35;73.50
42125;BME280;27787;44.594;11.046;2023-09-07T01:01:00;101478.84;;;20.23;73.94
42125;BME280;27787;44.594;11.046;2023-09-07T01:03:44;101485.13;;;20.22;74.38
42125;BME280;27787;44.594;11.046;2023-09-07T01:06:30;101481.63;;;20.17;74.91
42125;BME280;27787;44.594;11.046;2023-09-07T01:09:24;101473.72;;;20.11;75.18
42125;BME280;27787;44.594;11.046;2023-09-07T01:12:14;101478.31;;;20.06;75.82
42125;BME280;27787;44.594;11.046;2023-09-07T01:14:59;101477.44;;;20.04;76.08
42125;BME280;27787;44.594;11.046;2023-09-07T01:17:44;101483.53;;;20.12;76.21
42125;BME280;27787;44.594;11.046;2023-09-07T01:20:30;101477.84;;;20.27;75.56
42125;BME280;27787;44.594;11.046;2023-09-07T01:23:15;101475.81;;;20.39;74.67
42125;BME280;27787;44.594;11.046;2023-09-07T01:26:00;101471.09;;;20.51;74.61
42125;BME280;27787;44.594;11.046;2023-09-07T01:28:44;101463.78;;;20.59;73.87
42125;BME280;27787;44.594;11.046;2023-09-07T01:31:28;101467.38;;;20.57;74.22
42125;BME280;27787;44.594;11.046;2023-09-07T01:34:13;101463.00;;;20.53;73.98
42125;BME280;27787;44.594;11.046;2023-09-07T01:36:56;101463.91;;;20.53;74.03
42125;BME280;27787;44.594;11.046;2023-09-07T01:39:40;101454.81;;;20.60;73.58
42125;BME280;27787;44.594;11.046;2023-09-07T01:42:25;101451.13;;;20.65;73.29
42125;BME280;27787;44.594;11.046;2023-09-07T01:45:10;101452.03;;;20.64;73.47
42125;BME280;27787;44.594;11.046;2023-09-07T01:47:54;101451.25;;;20.60;73.64
42125;BME280;27787;44.594;11.046;2023-09-07T01:50:39;101454.03;;;20.54;74.24
42125;BME280;27787;44.594;11.046;2023-09-07T01:53:23;101453.16;;;20.53;74.22
42125;BME280;27787;44.594;11.046;2023-09-07T01:56:09;101455.97;;;20.49;74.04
42125;BME280;27787;44.594;11.046;2023-09-07T01:58:53;101450.72;;;20.43;74.30
42125;BME280;27787;44.594;11.046;2023-09-07T02:01:37;101448.91;;;20.43;74.03
42125;BME280;27787;44.594;11.046;2023-09-07T02:04:22;101446.22;;;20.43;74.36
42125;BME280;27787;44.594;11.046;2023-09-07T02:07:06;101446.28;;;20.42;74.38
42125;BME280;27787;44.594;11.046;2023-09-07T02:09:50;101450.72;;;20.43;74.34
42125;BME280;27787;44.594;11.046;2023-09-07T02:12:35;101455.19;;;20.42;74.49
42125;BME280;27787;44.594;11.046;2023-09-07T02:15:19;101451.59;;;20.45;74.24
42125;BME280;27787;44.594;11.046;2023-09-07T02:18:05;101454.28;;;20.45;73.54
42125;BME280;27787;44.594;11.046;2023-09-07T02:20:49;101450.72;;;20.43;73.92
42125;BME280;27787;44.594;11.046;2023-09-07T02:23:33;101452.59;;;20.38;73.58
42125;BME280;27787;44.594;11.046;2023-09-07T02:26:18;101455.50;;;20.27;73.95
42125;BME280;27787;44.594;11.046;2023-09-07T02:29:02;101459.25;;;20.20;74.11
42125;BME280;27787;44.594;11.046;2023-09-07T02:31:49;101455.91;;;20.09;74.76
42125;BME280;27787;44.594;11.046;2023-09-07T02:34:34;101448.88;;;20.03;75.05
42125;BME280;27787;44.594;11.046;2023-09-07T02:37:21;101457.78;;;20.03;75.61
42125;BME280;27787;44.594;11.046;2023-09-07T02:40:06;101456.78;;;20.09;75.00
42125;BME280;27787;44.594;11.046;2023-09-07T02:42:52;101455.94;;;20.07;74.50
42125;BME280;27787;44.594;11.046;2023-09-07T02:45:36;101460.41;;;20.08;74.40
42125;BME280;27787;44.594;11.046;2023-09-07T02:48:22;101460.44;;;20.05;74.71
42125;BME280;27787;44.594;11.046;2023-09-07T02:51:06;101458.03;;;19.93;74.99
42125;BME280;27787;44.594;11.046;2023-09-07T02:53:51;101452.94;;;19.78;75.82
42125;BME280;27787;44.594;11.046;2023-09-07T02:56:36;101461.16;;;19.70;76.10
42125;BME280;27787;44.594;11.046;2023-09-07T02:59:21;101459.63;;;19.57;76.39
42125;BME280;27787;44.594;11.046;2023-09-07T03:02:06;101451.81;;;19.43;76.84
42125;BME280;27787;44.594;11.046;2023-09-07T03:04:54;101457.88;;;19.51;76.55
42125;BME280;27787;44.594;11.046;2023-09-07T03:07:45;101449.91;;;19.48;76.46
42125;BME280;27787;44.594;11.046;2023-09-07T03:10:30;101463.47;;;19.39;76.93
42125;BME280;27787;44.594;11.046;2023-09-07T03:13:13;101457.22;;;19.38;77.38
42125;BME280;27787;44.594;11.046;2023-09-07T03:15:59;101462.50;;;19.43;77.57
42125;BME280;27787;44.594;11.046;2023-09-07T03:18:43;101462.38;;;19.49;76.48
42125;BME280;27787;44.594;11.046;2023-09-07T03:21:29;101465.88;;;19.56;76.47
42125;BME280;27787;44.594;11.046;2023-09-07T03:24:14;101466.63;;;19.62;75.73
42125;BME280;27787;44.594;11.046;2023-09-07T03:27:00;101465.66;;;19.68;75.55
42125;BME280;27787;44.594;11.046;2023-09-07T03:29:44;101458.53;;;19.65;75.74
42125;BME280;27787;44.594;11.046;2023-09-07T03:32:29;101464.88;;;19.61;75.89
42125;BME280;27787;44.594;11.046;2023-09-07T03:35:17;101459.56;;;19.60;76.15
42125;BME280;27787;44.594;11.046;2023-09-07T03:38:01;101466.75;;;19.58;75.93
42125;BME280;27787;44.594;11.046;2023-09-07T03:40:45;101467.69;;;19.52;76.15
42125;BME280;27787;44.594;11.046;2023-09-07T03:43:30;101467.72;;;19.51;75.99
42125;BME280;27787;44.594;11.046;2023-09-07T03:46:14;101467.69;;;19.55;76.05
42125;BME280;27787;44.594;11.046;2023-09-07T03:48:58;101475.59;;;19.61;75.49
42125;BME280;27787;44.594;11.046;2023-09-07T03:51:44;101478.09;;;19.70;75.33
42125;BME280;27787;44.594;11.046;2023-09-07T03:54:30;101478.00;;;19.75;75.03
42125;BME280;27787;44.594;11.046;2023-09-07T03:57:15;101478.81;;;19.80;75.03
42125;BME280;27787;44.594;11.046;2023-09-07T04:00:00;101477.81;;;19.86;74.75
42125;BME280;27787;44.594;11.046;2023-09-07T04:02:44;101475.09;;;19.87;74.68
42125;BME280;27787;44.594;11.046;2023-09-07T04:05:28;101481.34;;;19.88;74.86
42125;BME280;27787;44.594;11.046;2023-09-07T04:08:12;101477.00;;;19.82;74.67
42125;BME280;27787;44.594;11.046;2023-09-07T04:10:56;101475.31;;;19.75;75.68
42125;BME280;27787;44.594;11.046;2023-09-07T04:13:40;101469.19;;;19.70;76.33
42125;BME280;27787;44.594;11.046;2023-09-07T04:16:24;101482.53;;;19.73;75.49
42125;BME280;27787;44.594;11.046;2023-09-07T04:19:08;101471.94;;;19.65;75.85
42125;BME280;27787;44.594;11.046;2023-09-07T04:21:53;101477.41;;;19.59;76.23
42125;BME280;27787;44.594;11.046;2023-09-07T04:24:37;101480.13;;;19.58;75.93
42125;BME280;27787;44.594;11.046;2023-09-07T04:27:22;101480.00;;;19.64;75.74
42125;BME280;27787;44.594;11.046;2023-09-07T04:30:06;101479.94;;;19.68;75.08
42125;BME280;27787;44.594;11.046;2023-09-07T04:32:51;101474.50;;;19.71;74.79
42125;BME280;27787;44.594;11.046;2023-09-07T04:35:35;101481.63;;;19.72;74.57
42125;BME280;27787;44.594;11.046;2023-09-07T04:38:20;101487.97;;;19.68;74.48
42125;BME280;27787;44.594;11.046;2023-09-07T04:41:11;101482.75;;;19.61;74.53
42125;BME280;27787;44.594;11.046;2023-09-07T04:43:55;101488.19;;;19.56;74.54
42125;BME280;27787;44.594;11.046;2023-09-07T04:46:44;101490.91;;;19.53;75.11
42125;BME280;27787;44.594;11.046;2023-09-07T04:49:29;101490.03;;;19.51;74.95
42125;BME280;27787;44.594;11.046;2023-09-07T04:52:13;101487.44;;;19.47;75.16
42125;BME280;27787;44.594;11.046;2023-09-07T04:54:57;101487.50;;;19.43;75.65
42125;BME280;27787;44.594;11.046;2023-09-07T04:57:41;101486.47;;;19.51;75.73
42125;BME280;27787;44.594;11.046;2023-09-07T05:00:26;101493.56;;;19.56;75.23
42125;BME280;27787;44.594;11.046;2023-09-07T05:03:10;101488.97;;;19.61;75.10
42125;BME280;27787;44.594;11.046;2023-09-07T05:05:55;101498.69;;;19.68;74.32
42125;BME280;27787;44.594;11.046;2023-09-07T05:08:39;101490.59;;;19.71;73.89
42125;BME280;27787;44.594;11.046;2023-09-07T05:11:23;101491.41;;;19.75;73.62
42125;BME280;27787;44.594;11.046;2023-09-07T05:14:07;101493.34;;;19.68;73.69
42125;BME280;27787;44.594;11.046;2023-09-07T05:16:52;101504.06;;;19.65;74.59
42125;BME280;27787;44.594;11.046;2023-09-07T05:19:37;101497.06;;;19.60;73.82
42125;BME280;27787;44.594;11.046;2023-09-07T05:22:21;101500.69;;;19.53;74.25
42125;BME280;27787;44.594;11.046;2023-09-07T05:25:06;101510.63;;;19.48;75.07
42125;BME280;27787;44.594;11.046;2023-09-07T05:27:50;101503.47;;;19.48;75.33
42125;BME280;27787;44.594;11.046;2023-09-07T05:30:34;101510.50;;;19.57;75.06
42125;BME280;27787;44.594;11.046;2023-09-07T05:33:19;101513.00;;;19.67;74.64
42125;BME280;27787;44.594;11.046;2023-09-07T05:36:03;101517.38;;;19.71;73.74
42125;BME280;27787;44.594;11.046;2023-09-07T05:38:47;101512.81;;;19.77;74.33
42125;BME280;27787;44.594;11.046;2023-09-07T05:41:32;101515.38;;;19.83;74.90
42125;BME280;27787;44.594;11.046;2023-09-07T05:44:16;101514.38;;;19.88;74.31
42125;BME280;27787;44.594;11.046;2023-09-07T05:47:00;101516.94;;;19.94;74.27
42125;BME280;27787;44.594;11.046;2023-09-07T05:49:46;101517.00;;;19.93;74.11
42125;BME280;27787;44.594;11.046;2023-09-07T05:52:31;101531.28;;;19.92;74.14
42125;BME280;27787;44.594;11.046;2023-09-07T05:55:15;101527.84;;;19.85;74.27
42125;BME280;27787;44.594;11.046;2023-09-07T05:58:03;101526.22;;;19.75;74.23
42125;BME280;27787;44.594;11.046;2023-09-07T06:00:48;101527.25;;;19.69;74.31
42125;BME280;27787;44.594;11.046;2023-09-07T06:03:33;101533.50;;;19.68;74.85
42125;BME280;27787;44.594;11.046;2023-09-07T06:06:19;101527.19;;;19.72;74.93
42125;BME280;27787;44.594;11.046;2023-09-07T06:09:03;101526.16;;;19.80;75.31
42125;BME280;27787;44.594;11.046;2023-09-07T06:11:48;101525.91;;;19.92;74.68
42125;BME280;27787;44.594;11.046;2023-09-07T06:14:32;101530.13;;;20.07;74.76
42125;BME280;27787;44.594;11.046;2023-09-07T06:17:17;101526.47;;;20.11;74.13
42125;BME280;27787;44.594;11.046;2023-09-07T06:20:01;101526.41;;;20.12;74.05
42125;BME280;27787;44.594;11.046;2023-09-07T06:22:46;101534.44;;;20.14;74.44
42125;BME280;27787;44.594;11.046;2023-09-07T06:25:30;101538.97;;;20.10;74.86
42125;BME280;27787;44.594;11.046;2023-09-07T06:28:16;101539.84;;;20.11;74.97
42125;BME280;27787;44.594;11.046;2023-09-07T06:31:01;101541.69;;;20.09;75.03
42125;BME280;27787;44.594;11.046;2023-09-07T06:33:45;101538.94;;;20.12;75.43
42125;BME280;27787;44.594;11.046;2023-09-07T06:36:30;101531.78;;;20.12;74.94
42125;BME280;27787;44.594;11.046;2023-09-07T06:39:14;101534.50;;;20.11;75.66
42125;BME280;27787;44.594;11.046;2023-09-07T06:41:59;101531.81;;;20.11;75.56
42125;BME280;27787;44.594;11.046;2023-09-07T06:44:48;101529.91;;;20.16;75.38
42125;BME280;27787;44.594;11.046;2023-09-07T06:47:33;101523.56;;;20.21;75.52
42125;BME280;27787;44.594;11.046;2023-09-07T06:50:19;101524.38;;;20.25;76.42
42125;BME280;27787;44.594;11.046;2023-09-07T06:53:03;101534.03;;;20.33;76.19
42125;BME280;27787;44.594;11.046;2023-09-07T06:55:57;101530.31;;;20.42;76.41
42125;BME280;27787;44.594;11.046;2023-09-07T06:58:41;101540.09;;;20.45;76.51
42125;BME280;27787;44.594;11.046;2023-09-07T07:01:26;101549.00;;;20.47;76.36
42125;BME280;27787;44.594;11.046;2023-09-07T07:04:10;101543.56;;;20.50;77.13
42125;BME280;27787;44.594;11.046;2023-09-07T07:06:54;101542.50;;;20.58;77.47
42125;BME280;27787;44.594;11.046;2023-09-07T07:09:38;101541.53;;;20.61;77.52
42125;BME280;27787;44.594;11.046;2023-09-07T07:12:23;101540.59;;;20.64;77.30
42125;BME280;27787;44.594;11.046;2023-09-07T07:15:08;101544.06;;;20.67;77.44
42125;BME280;27787;44.594;11.046;2023-09-07T07:17:53;101537.72;;;20.73;77.60
42125;BME280;27787;44.594;11.046;2023-09-07T07:20:38;101553.63;;;20.80;77.93
42125;BME280;27787;44.594;11.046;2023-09-07T07:23:22;101546.38;;;20.85;77.66
42125;BME280;27787;44.594;11.046;2023-09-07T07:26:06;101552.44;;;20.94;77.46
42125;BME280;27787;44.594;11.046;2023-09-07T07:28:51;101552.22;;;21.03;77.62
42125;BME280;27787;44.594;11.046;2023-09-07T07:31:35;101559.22;;;21.10;77.24
42125;BME280;27787;44.594;11.046;2023-09-07T07:34:20;101563.44;;;21.20;76.59
42125;BME280;27787;44.594;11.046;2023-09-07T07:37:05;101557.13;;;21.23;76.27
42125;BME280;27787;44.594;11.046;2023-09-07T07:39:49;101556.13;;;21.28;76.37
42125;BME280;27787;44.594;11.046;2023-09-07T07:42:34;101554.19;;;21.33;76.15
42125;BME280;27787;44.594;11.046;2023-09-07T07:45:19;101545.16;;;21.37;76.19
42125;BME280;27787;44.594;11.046;2023-09-07T07:48:07;101549.50;;;21.43;75.76
42125;BME280;27787;44.594;11.046;2023-09-07T07:50:52;101549.31;;;21.51;75.92
42125;BME280;27787;44.594;11.046;2023-09-07T07:53:37;101554.50;;;21.57;75.81
42125;BME280;27787;44.594;11.046;2023-09-07T07:56:21;101559.75;;;21.61;75.24
42125;BME280;27787;44.594;11.046;2023-09-07T07:59:08;101556.09;;;21.65;74.93
42125;BME280;27787;44.594;11.046;2023-09-07T08:01:53;101551.38;;;21.73;74.69
42125;BME280;27787;44.594;11.046;2023-09-07T08:04:40;101554.63;;;21.86;74.42
42125;BME280;27787;44.594;11.046;2023-09-07T08:07:25;101555.50;;;21.87;74.20
42125;BME280;27787;44.594;11.046;2023-09-07T08:10:10;101552.81;;;21.88;74.00
42125;BME280;27787;44.594;11.046;2023-09-07T08:12:55;101556.06;;;21.99;73.96
42125;BME280;27787;44.594;11.046;2023-09-07T08:15:40;101564.13;;;21.99;74.20
42125;BME280;27787;44.594;11.046;2023-09-07T08:18:25;101558.66;;;22.04;73.94
42125;BME280;27787;44.594;11.046;2023-09-07T08:21:10;101557.72;;;22.06;73.89
42125;BME280;27787;44.594;11.046;2023-09-07T08:23:55;101558.38;;;22.15;74.11
42125;BME280;27787;44.594;11.046;2023-09-07T08:26:40;101555.66;;;22.16;73.70
42125;BME280;27787;44.594;11.046;2023-09-07T08:29:24;101551.06;;;22.20;73.96
42125;BME280;27787;44.594;11.046;2023-09-07T08:32:11;101550.03;;;22.24;73.73
42125;BME280;27787;44.594;11.046;2023-09-07T08:34:55;101550.84;;;22.27;74.02
42125;BME280;27787;44.594;11.046;2023-09-07T08:37:41;101547.66;;;22.44;73.85
42125;BME280;27787;44.594;11.046;2023-09-07T08:40:26;101552.97;;;22.47;73.84
42125;BME280;27787;44.594;11.046;2023-09-07T08:43:11;101552.97;;;22.47;73.68
42125;BME280;27787;44.594;11.046;2023-09-07T08:46:04;101549.44;;;22.45;74.22
42125;BME280;27787;44.594;11.046;2023-09-07T08:48:50;101549.34;;;22.48;74.57
42125;BME280;27787;44.594;11.046;2023-09-07T08:51:35;101537.78;;;22.45;74.91
42125;BME280;27787;44.594;11.046;2023-09-07T08:54:22;101543.78;;;22.54;75.84
42125;BME280;27787;44.594;11.046;2023-09-07T08:57:07;101548.19;;;22.57;75.98
42125;BME280;27787;44.594;11.046;2023-09-07T08:59:52;101540.16;;;22.55;75.95
42125;BME280;27787;44.594;11.046;2023-09-07T09:02:37;101541.06;;;22.56;76.14
42125;BME280;27787;44.594;11.046;2023-09-07T09:05:23;101538.22;;;22.60;76.55
42125;BME280;27787;44.594;11.046;2023-09-07T09:08:09;101541.69;;;22.64;77.05
42125;BME280;27787;44.594;11.046;2023-09-07T09:11:02;101543.44;;;22.66;77.01
42125;BME280;27787;44.594;11.046;2023-09-07T09:13:49;101537.75;;;22.76;76.59
42125;BME280;27787;44.594;11.046;2023-09-07T09:16:33;101541.38;;;22.75;75.69
42125;BME280;27787;44.594;11.046;2023-09-07T09:19:18;101532.34;;;22.76;75.85
42125;BME280;27787;44.594;11.046;2023-09-07T09:22:02;101525.09;;;22.78;76.00
42125;BME280;27787;44.594;11.046;2023-09-07T09:24:48;101533.97;;;22.83;75.72
42125;BME280;27787;44.594;11.046;2023-09-07T09:27:32;101523.22;;;22.83;75.49
42125;BME280;27787;44.594;11.046;2023-09-07T09:30:17;101539.38;;;22.83;75.41
42125;BME280;27787;44.594;11.046;2023-09-07T09:33:02;101536.56;;;22.86;75.28
42125;BME280;27787;44.594;11.046;2023-09-07T09:35:47;101531.91;;;22.91;75.45
42125;BME280;27787;44.594;11.046;2023-09-07T09:38:32;101529.09;;;22.95;74.97
42125;BME280;27787;44.594;11.046;2023-09-07T09:41:17;101526.13;;;23.03;74.45
42125;BME280;27787;44.594;11.046;2023-09-07T09:44:05;101536.22;;;23.24;73.89
42125;BME280;27787;44.594;11.046;2023-09-07T09:46:53;101530.72;;;23.28;73.07
42125;BME280;27787;44.594;11.046;2023-09-07T09:49:39;101529.84;;;23.27;73.10
42125;BME280;27787;44.594;11.046;2023-09-07T09:52:24;101534.25;;;23.30;73.77
42125;BME280;27787;44.594;11.046;2023-09-07T09:55:09;101521.88;;;23.50;71.81
42125;BME280;27787;44.594;11.046;2023-09-07T09:57:57;101523.13;;;23.67;71.44
42125;BME280;27787;44.594;11.046;2023-09-07T10:00:49;101515.78;;;23.72;70.80
42125;BME280;27787;44.594;11.046;2023-09-07T10:03:38;101519.41;;;23.71;70.16
42125;BME280;27787;44.594;11.046;2023-09-07T10:06:29;101505.19;;;23.66;69.58
42125;BME280;27787;44.594;11.046;2023-09-07T10:09:13;101513.16;;;23.70;70.44
42125;BME280;27787;44.594;11.046;2023-09-07T10:12:01;101500.56;;;23.69;71.16
42125;BME280;27787;44.594;11.046;2023-09-07T10:14:47;101504.66;;;23.81;69.91
42125;BME280;27787;44.594;11.046;2023-09-07T10:17:35;101501.91;;;23.82;68.14
42125;BME280;27787;44.594;11.046;2023-09-07T10:20:20;101500.88;;;23.87;68.10
42125;BME280;27787;44.594;11.046;2023-09-07T10:23:06;101496.41;;;23.86;69.06
42125;BME280;27787;44.594;11.046;2023-09-07T10:25:52;101496.56;;;23.81;69.02
42125;BME280;27787;44.594;11.046;2023-09-07T10:28:36;101493.09;;;23.77;69.16
42125;BME280;27787;44.594;11.046;2023-09-07T10:31:25;101488.66;;;23.76;69.76
42125;BME280;27787;44.594;11.046;2023-09-07T10:34:10;101489.41;;;23.80;69.34
42125;BME280;27787;44.594;11.046;2023-09-07T10:36:56;101478.34;;;23.88;66.47
42125;BME280;27787;44.594;11.046;2023-09-07T10:39:41;101476.38;;;23.93;65.78
42125;BME280;27787;44.594;11.046;2023-09-07T10:42:28;101471.03;;;23.91;66.02
42125;BME280;27787;44.594;11.046;2023-09-07T10:45:14;101472.59;;;23.98;66.48
42125;BME280;27787;44.594;11.046;2023-09-07T10:48:02;101472.47;;;24.01;66.34
42125;BME280;27787;44.594;11.046;2023-09-07T10:50:48;101459.66;;;24.06;64.52
42125;BME280;27787;44.594;11.046;2023-09-07T10:53:32;101458.63;;;24.10;64.93
42125;BME280;27787;44.594;11.046;2023-09-07T10:56:17;101464.78;;;24.14;65.20
42125;BME280;27787;44.594;11.046;2023-09-07T10:59:02;101460.81;;;24.24;62.79
42125;BME280;27787;44.594;11.046;2023-09-07T11:01:47;101446.22;;;24.30;62.46
42125;BME280;27787;44.594;11.046;2023-09-07T11:04:34;101451.63;;;24.30;62.95
42125;BME280;27787;44.594;11.046;2023-09-07T11:07:18;101444.34;;;24.32;63.55
42125;BME280;27787;44.594;11.046;2023-09-07T11:10:05;101444.34;;;24.32;63.46
42125;BME280;27787;44.594;11.046;2023-09-07T11:12:51;101445.16;;;24.34;62.64
42125;BME280;27787;44.594;11.046;2023-09-07T11:15:35;101437.94;;;24.34;62.21
42125;BME280;27787;44.594;11.046;2023-09-07T11:18:20;101426.22;;;24.35;62.31
42125;BME280;27787;44.594;11.046;2023-09-07T11:21:10;101435.00;;;24.40;62.18
42125;BME280;27787;44.594;11.046;2023-09-07T11:23:54;101427.72;;;24.42;61.85
42125;BME280;27787;44.594;11.046;2023-09-07T11:26:45;101439.50;;;24.63;59.81
42125;BME280;27787;44.594;11.046;2023-09-07T11:29:32;101428.94;;;24.79;58.99
42125;BME280;27787;44.594;11.046;2023-09-07T11:32:16;101429.69;;;24.83;58.48
42125;BME280;27787;44.594;11.046;2023-09-07T11:35:05;101423.56;;;24.79;59.06
42125;BME280;27787;44.594;11.046;2023-09-07T11:37:53;101416.41;;;24.78;60.05
42125;BME280;27787;44.594;11.046;2023-09-07T11:40:38;101416.41;;;24.78;59.30
42125;BME280;27787;44.594;11.046;2023-09-07T11:43:22;101419.91;;;24.80;58.78
42125;BME280;27787;44.594;11.046;2023-09-07T11:46:06;101417.81;;;24.87;58.39
42125;BME280;27787;44.594;11.046;2023-09-07T11:48:51;101413.94;;;24.94;58.04
42125;BME280;27787;44.594;11.046;2023-09-07T11:51:35;101409.25;;;24.97;57.82
42125;BME280;27787;44.594;11.046;2023-09-07T11:54:19;101400.00;;;25.05;57.82
42125;BME280;27787;44.594;11.046;2023-09-07T11:57:03;101407.03;;;25.09;57.63
42125;BME280;27787;44.594;11.046;2023-09-07T11:59:47;101395.13;;;25.13;56.97
42125;BME280;27787;44.594;11.046;2023-09-07T12:02:32;101397.50;;;25.20;57.07
42125;BME280;27787;44.594;11.046;2023-09-07T12:05:17;101397.19;;;25.28;57.76
42125;BME280;27787;44.594;11.046;2023-09-07T12:08:04;101393.41;;;25.32;56.76
42125;BME280;27787;44.594;11.046;2023-09-07T12:10:50;101382.38;;;25.37;56.88
42125;BME280;27787;44.594;11.046;2023-09-07T12:13:33;101386.50;;;25.45;56.13
42125;BME280;27787;44.594;11.046;2023-09-07T12:16:18;101390.63;;;25.54;55.93
42125;BME280;27787;44.594;11.046;2023-09-07T12:19:02;101389.41;;;25.61;56.05
42125;BME280;27787;44.594;11.046;2023-09-07T12:21:46;101380.56;;;25.57;55.18
42125;BME280;27787;44.594;11.046;2023-09-07T12:24:31;101376.09;;;25.56;55.87
42125;BME280;27787;44.594;11.046;2023-09-07T12:27:15;101369.88;;;25.54;56.24
42125;BME280;27787;44.594;11.046;2023-09-07T12:30:00;101362.72;;;25.53;56.17
42125;BME280;27787;44.594;11.046;2023-09-07T12:32:44;101368.06;;;25.55;56.29
42125;BME280;27787;44.594;11.046;2023-09-07T12:35:29;101365.06;;;25.61;56.53
42125;BME280;27787;44.594;11.046;2023-09-07T12:38:13;101352.25;;;25.65;56.33
42125;BME280;27787;44.594;11.046;2023-09-07T12:41:01;101346.63;;;25.71;56.45
42125;BME280;27787;44.594;11.046;2023-09-07T12:43:46;101350.78;;;25.78;56.68
42125;BME280;27787;44.594;11.046;2023-09-07T12:46:30;101350.28;;;25.88;56.23
42125;BME280;27787;44.594;11.046;2023-09-07T12:49:15;101337.81;;;26.05;55.62
42125;BME280;27787;44.594;11.046;2023-09-07T12:51:59;101337.94;;;26.21;54.67
42125;BME280;27787;44.594;11.046;2023-09-07T12:54:44;101338.91;;;26.38;54.20
42125;BME280;27787;44.594;11.046;2023-09-07T12:57:28;101332.16;;;26.47;54.04
42125;BME280;27787;44.594;11.046;2023-09-07T13:00:13;101349.13;;;26.51;54.05
42125;BME280;27787;44.594;11.046;2023-09-07T13:02:57;101338.75;;;26.41;53.88
42125;BME280;27787;44.594;11.046;2023-09-07T13:05:42;101339.03;;;26.35;54.37
42125;BME280;27787;44.594;11.046;2023-09-07T13:08:26;101338.31;;;26.32;55.33
42125;BME280;27787;44.594;11.046;2023-09-07T13:11:12;101329.22;;;26.33;55.46
42125;BME280;27787;44.594;11.046;2023-09-07T13:13:56;101331.56;;;26.40;53.96
42125;BME280;27787;44.594;11.046;2023-09-07T13:16:40;101324.19;;;26.44;54.14
42125;BME280;27787;44.594;11.046;2023-09-07T13:19:24;101329.38;;;26.49;54.38
42125;BME280;27787;44.594;11.046;2023-09-07T13:22:09;101317.50;;;26.51;53.38
42125;BME280;27787;44.594;11.046;2023-09-07T13:24:53;101311.78;;;26.57;51.74
42125;BME280;27787;44.594;11.046;2023-09-07T13:27:37;101315.06;;;26.64;50.91
42125;BME280;27787;44.594;11.046;2023-09-07T13:30:22;101314.69;;;26.71;48.67
42125;BME280;27787;44.594;11.046;2023-09-07T13:33:06;101308.94;;;26.78;47.55
42125;BME280;27787;44.594;11.046;2023-09-07T13:35:51;101310.50;;;26.82;46.62
42125;BME280;27787;44.594;11.046;2023-09-07T13:38:36;101303.75;;;26.90;46.04
42125;BME280;27787;44.594;11.046;2023-09-07T13:41:20;101298.75;;;27.00;45.77
42125;BME280;27787;44.594;11.046;2023-09-07T13:44:05;101291.91;;;27.10;45.92
42125;BME280;27787;44.594;11.046;2023-09-07T13:46:51;101294.13;;;27.19;45.70
42125;BME280;27787;44.594;11.046;2023-09-07T13:49:38;101295.47;;;27.28;45.63
42125;BME280;27787;44.594;11.046;2023-09-07T13:52:23;101299.44;;;27.38;45.38
42125;BME280;27787;44.594;11.046;2023-09-07T13:55:08;101297.81;;;27.51;44.89
42125;BME280;27787;44.594;11.046;2023-09-07T13:57:52;101294.66;;;27.59;45.24
42125;BME280;27787;44.594;11.046;2023-09-07T14:00:37;101294.09;;;27.70;45.16
42125;BME280;27787;44.594;11.046;2023-09-07T14:03:21;101288.19;;;27.79;44.96
42125;BME280;27787;44.594;11.046;2023-09-07T14:06:06;101293.88;;;27.90;44.38
42125;BME280;27787;44.594;11.046;2023-09-07T14:08:50;101300.69;;;27.97;43.67
42125;BME280;27787;44.594;11.046;2023-09-07T14:11:35;101293.44;;;27.98;42.59